Главная страница
METAR-TAF:

METAR-TAF

Аэропорты :

Йоэнсуу, Финляндия

широта: 62-40N, долгота: 029-38E, высота над уровнем моря: 119 м

Текущие метеонаблюдения

Эта сводка был подготовлена 33 минут назад, в 05:50 UTC
Ветер 7 Узел от северно-северо-западный, изменяющийся между западно-северо-западный и северный
Температура 14°C
Влажность 88%
Давление 1011 hPa
Видимость 10 км и более
Рассеянная облачность на высоте 500 фута

METAR: EFJO 230550Z 33007KT 290V350 9999 BKN005 14/12 Q1011

Время: 09:23 (06:23 UTC)

Прогноз

Эта сводка был подготовлена 59 минут назад, в 05:24 UTC
Прогноз действительный с 23-го 06 UTC до 23-го 15 UTC
Ветер 6 Узел от северно-северо-западный
Видимость 10 км и более
Рассеянная облачность на высоте 2000 фута
Вероятность 40%
С 23-го 06 UTC до 23-го 07 UTC
Рассеянная облачность на высоте 700 фута
временами
С 23-го 10 UTC до 23-го 15 UTC
Отдельные облака на высоте 2500 фута, Кучево-дождевые.

TAF: EFJO 230524Z 2306/2315 34006KT 9999 BKN020 PROB40 2306/2307 BKN007 TEMPO 2310/2315 SCT025CB

Метеонаблюдения и прогнозы для более 4000 аэропортов (сводки METAR и TAF).

Имеющиеся станции представлены на карте желтыми и красными точками.

Чтобы увидеть название станции, наведите на нее мышь.

Затем щелкните, чтобы увидеть метеонаблюдения и метеопрогнозы.

Управление картой: чтобы увеличить масштаб, щелкните зеленые кнопки с черным крестиком; чтобы уменьшить масштаб, щелкните зеленую кнопку с тире; для просмотра соседних карт щелкайте зеленые стрелки.


METAR-TAF: